Time,TemperatureF,DewpointF,PressureIn,WindDirection,WindDirectionDegrees,WindSpeedMPH,WindSpeedGustMPH,Humidity,HourlyPrecipIn,Conditions,Clouds,dailyrainin,SoftwareType,DateUTC
2013-03-20 00:09:00,43.8,9.0,30.15,NNW,327,2.0,-999.0,24,-99.99,,,0.00,weatherlink.com 1.10,2013-03-20 04:09:00,
2013-03-20 00:24:00,43.5,11.0,30.16,NW,319,0.0,-999.0,27,-99.99,,,0.00,weatherlink.com 1.10,2013-03-20 04:24:00,
2013-03-20 00:39:00,42.6,13.0,30.16,West,259,0.0,-999.0,30,-99.99,,,0.00,weatherlink.com 1.10,2013-03-20 04:39:00,
2013-03-20 00:54:00,40.9,13.0,30.16,WSW,247,0.0,-999.0,32,-99.99,,,0.00,weatherlink.com 1.10,2013-03-20 04:54:00,
2013-03-20 01:09:00,39.5,14.0,30.16,SW,231,0.0,-999.0,35,-99.99,,,0.00,weatherlink.com 1.10,2013-03-20 05:09:00,
2013-03-20 01:24:00,38.7,14.0,30.17,SW,231,0.0,-999.0,37,-99.99,,,0.00,weatherlink.com 1.10,2013-03-20 05:24:00,
2013-03-20 01:39:00,38.3,15.0,30.17,SW,231,0.0,-999.0,39,-99.99,,,0.00,weatherlink.com 1.10,2013-03-20 05:39:00,
2013-03-20 01:54:00,38.0,19.0,30.17,SW,231,0.0,-999.0,46,-99.99,,,0.00,weatherlink.com 1.10,2013-03-20 05:54:00,
2013-03-20 02:09:00,37.3,19.0,30.16,SW,231,0.0,-999.0,48,-99.99,,,0.00,weatherlink.com 1.10,2013-03-20 06:09:00,
2013-03-20 02:25:00,37.2,16.0,30.17,West,259,1.0,-999.0,42,-99.99,,,0.00,weatherlink.com 1.10,2013-03-20 06:25:00,
2013-03-20 02:40:00,37.8,14.0,30.16,North,359,0.0,-999.0,38,-99.99,,,0.00,weatherlink.com 1.10,2013-03-20 06:40:00,
2013-03-20 02:55:00,38.4,15.0,30.16,WNW,297,1.0,-999.0,38,-99.99,,,0.00,weatherlink.com 1.10,2013-03-20 06:55:00,
2013-03-20 03:10:00,38.5,14.0,30.15,WNW,297,0.0,-999.0,37,-99.99,,,0.00,weatherlink.com 1.10,2013-03-20 07:10:00,
2013-03-20 03:25:00,38.2,12.0,30.15,NW,309,0.0,-999.0,34,-99.99,,,0.00,weatherlink.com 1.10,2013-03-20 07:25:00,
2013-03-20 03:40:00,38.0,11.0,30.15,NW,309,0.0,-999.0,33,-99.99,,,0.00,weatherlink.com 1.10,2013-03-20 07:40:00,
2013-03-20 03:55:00,38.0,9.0,30.14,South,185,1.0,-999.0,30,-99.99,,,0.00,weatherlink.com 1.10,2013-03-20 07:55:00,
2013-03-20 04:10:00,37.5,13.0,30.14,South,178,0.0,-999.0,36,-99.99,,,0.00,weatherlink.com 1.10,2013-03-20 08:10:00,
2013-03-20 04:25:00,37.2,13.0,30.14,WNW,292,0.0,-999.0,37,-99.99,,,0.00,weatherlink.com 1.10,2013-03-20 08:25:00,
2013-03-20 04:40:00,37.0,17.0,30.13,West,261,0.0,-999.0,44,-99.99,,,0.00,weatherlink.com 1.10,2013-03-20 08:40:00,
2013-03-20 04:55:00,36.7,14.0,30.13,WNW,296,1.0,-999.0,39,-99.99,,,0.00,weatherlink.com 1.10,2013-03-20 08:55:00,
2013-03-20 05:11:00,36.3,20.0,30.13,ENE,67,0.0,-999.0,51,-99.99,,,0.00,weatherlink.com 1.10,2013-03-20 09:11:00,
2013-03-20 05:26:00,35.5,21.0,30.13,SE,124,0.0,-999.0,56,-99.99,,,0.00,weatherlink.com 1.10,2013-03-20 09:26:00,
2013-03-20 05:41:00,34.5,20.0,30.13,SE,124,0.0,-999.0,55,-99.99,,,0.00,weatherlink.com 1.10,2013-03-20 09:41:00,
2013-03-20 05:56:00,33.9,18.0,30.14,SE,124,0.0,-999.0,53,-99.99,,,0.00,weatherlink.com 1.10,2013-03-20 09:56:00,
2013-03-20 06:11:00,33.5,18.0,30.15,North,359,0.0,-999.0,54,-99.99,,,0.00,weatherlink.com 1.10,2013-03-20 10:11:00,
2013-03-20 06:26:00,33.5,14.0,30.15,NW,319,0.0,-999.0,45,-99.99,,,0.00,weatherlink.com 1.10,2013-03-20 10:26:00,
2013-03-20 06:41:00,34.7,10.0,30.16,North,350,1.0,-999.0,36,-99.99,,,0.00,weatherlink.com 1.10,2013-03-20 10:41:00,
2013-03-20 06:56:00,35.6,11.0,30.16,NNE,16,1.0,-999.0,36,-99.99,,,0.00,weatherlink.com 1.10,2013-03-20 10:56:00,
2013-03-20 07:11:00,36.1,14.0,30.17,North,6,0.0,-999.0,40,-99.99,,,0.00,weatherlink.com 1.10,2013-03-20 11:11:00,
2013-03-20 07:26:00,36.2,14.0,30.17,North,1,0.0,-999.0,40,-99.99,,,0.00,weatherlink.com 1.10,2013-03-20 11:26:00,
2013-03-20 07:41:00,36.1,13.0,30.18,North,1,0.0,-999.0,39,-99.99,,,0.00,weatherlink.com 1.10,2013-03-20 11:41:00,
2013-03-20 07:57:00,36.0,16.0,30.18,NW,311,1.0,-999.0,45,-99.99,,,0.00,weatherlink.com 1.10,2013-03-20 11:57:00,
2013-03-20 08:12:00,36.4,20.0,30.19,NNE,26,5.0,-999.0,52,-99.99,,,0.00,weatherlink.com 1.10,2013-03-20 12:12:00,
2013-03-20 08:27:00,36.9,16.0,30.19,NNW,344,3.0,-999.0,43,-99.99,,,0.00,weatherlink.com 1.10,2013-03-20 12:27:00,
2013-03-20 08:42:00,38.1,12.0,30.20,North,352,0.0,-999.0,34,-99.99,,,0.00,weatherlink.com 1.10,2013-03-20 12:42:00,
2013-03-20 08:59:00,38.9,12.0,30.20,NNW,334,0.0,-999.0,33,-99.99,,,0.00,weatherlink.com 1.10,2013-03-20 12:59:00,
2013-03-20 09:12:00,39.4,9.0,30.20,NNW,342,2.0,-999.0,28,-99.99,,,0.00,weatherlink.com 1.10,2013-03-20 13:12:00,
2013-03-20 09:27:00,40.2,9.0,30.21,NW,321,0.0,-999.0,28,-99.99,,,0.00,weatherlink.com 1.10,2013-03-20 13:27:00,
2013-03-20 09:42:00,40.9,8.0,30.20,NW,314,1.0,-999.0,26,-99.99,,,0.00,weatherlink.com 1.10,2013-03-20 13:42:00,
2013-03-20 09:57:00,41.2,9.0,30.21,NNW,330,1.0,-999.0,26,-99.99,,,0.00,weatherlink.com 1.10,2013-03-20 13:57:00,
2013-03-20 10:12:00,42.1,7.0,30.20,WNW,299,0.0,-999.0,23,-99.99,,,0.00,weatherlink.com 1.10,2013-03-20 14:12:00,
2013-03-20 10:27:00,42.3,5.0,30.20,WNW,285,2.0,-999.0,21,-99.99,,,0.00,weatherlink.com 1.10,2013-03-20 14:27:00,
2013-03-20 10:42:00,42.9,5.0,30.21,NW,315,1.0,-999.0,21,-99.99,,,0.00,weatherlink.com 1.10,2013-03-20 14:42:00,
2013-03-20 10:58:00,43.2,7.0,30.20,NW,311,2.0,-999.0,22,-99.99,,,0.00,weatherlink.com 1.10,2013-03-20 14:58:00,
2013-03-20 11:13:00,43.8,8.0,30.19,NW,323,1.0,-999.0,23,-99.99,,,0.00,weatherlink.com 1.10,2013-03-20 15:13:00,
2013-03-20 11:28:00,43.9,5.0,30.19,NW,315,1.0,-999.0,20,-99.99,,,0.00,weatherlink.com 1.10,2013-03-20 15:28:00,
2013-03-20 11:43:00,45.3,9.0,30.19,WNW,301,1.0,-999.0,23,-99.99,,,0.00,weatherlink.com 1.10,2013-03-20 15:43:00,
2013-03-20 11:58:00,45.5,9.0,30.18,NW,326,1.0,-999.0,22,-99.99,,,0.00,weatherlink.com 1.10,2013-03-20 15:58:00,
2013-03-20 12:13:00,46.3,7.0,30.17,WNW,297,2.0,-999.0,20,-99.99,,,0.00,weatherlink.com 1.10,2013-03-20 16:13:00,
2013-03-20 12:28:00,47.9,6.0,30.16,WNW,284,0.0,-999.0,18,-99.99,,,0.00,weatherlink.com 1.10,2013-03-20 16:28:00,
2013-03-20 12:43:00,47.7,8.0,30.15,NNW,338,4.0,-999.0,20,-99.99,,,0.00,weatherlink.com 1.10,2013-03-20 16:43:00,
2013-03-20 12:58:00,48.8,11.0,30.13,NW,314,0.0,-999.0,22,-99.99,,,0.00,weatherlink.com 1.10,2013-03-20 16:58:00,
2013-03-20 13:13:00,49.4,6.0,30.12,NW,324,2.0,-999.0,17,-99.99,,,0.00,weatherlink.com 1.10,2013-03-20 17:13:00,
2013-03-20 13:28:00,49.8,8.0,30.10,NW,314,2.0,-999.0,18,-99.99,,,0.00,weatherlink.com 1.10,2013-03-20 17:28:00,
2013-03-20 13:44:00,50.6,10.0,30.09,WNW,288,0.0,-999.0,19,-99.99,,,0.00,weatherlink.com 1.10,2013-03-20 17:44:00,
2013-03-20 13:59:00,51.9,12.0,30.08,NW,315,3.0,-999.0,20,-99.99,,,0.00,weatherlink.com 1.10,2013-03-20 17:59:00,
2013-03-20 14:14:00,52.3,10.0,30.06,NW,305,3.0,-999.0,18,-99.99,,,0.00,weatherlink.com 1.10,2013-03-20 18:14:00,
2013-03-20 14:29:00,52.2,6.0,30.05,WNW,297,9.0,-999.0,15,-99.99,,,0.00,weatherlink.com 1.10,2013-03-20 18:29:00,
2013-03-20 14:44:00,53.1,8.0,30.03,WNW,292,3.0,-999.0,16,-99.99,,,0.00,weatherlink.com 1.10,2013-03-20 18:44:00,
2013-03-20 14:59:00,54.4,9.0,30.02,WSW,248,4.0,-999.0,16,-99.99,,,0.00,weatherlink.com 1.10,2013-03-20 18:59:00,
2013-03-20 15:14:00,54.4,3.0,30.00,SW,229,2.0,-999.0,12,-99.99,,,0.00,weatherlink.com 1.10,2013-03-20 19:14:00,
2013-03-20 15:29:00,53.9,10.0,29.99,WSW,255,2.0,-999.0,17,-99.99,,,0.00,weatherlink.com 1.10,2013-03-20 19:29:00,
2013-03-20 15:45:00,54.3,7.0,29.98,WNW,284,0.0,-999.0,15,-99.99,,,0.00,weatherlink.com 1.10,2013-03-20 19:45:00,
2013-03-20 16:00:00,53.8,7.0,29.97,SW,233,0.0,-999.0,15,-99.99,,,0.00,weatherlink.com 1.10,2013-03-20 20:00:00,
2013-03-20 16:15:00,54.5,9.0,29.96,SSW,211,1.0,-999.0,16,-99.99,,,0.00,weatherlink.com 1.10,2013-03-20 20:15:00,
2013-03-20 16:30:00,54.7,8.0,29.95,WSW,238,4.0,-999.0,15,-99.99,,,0.00,weatherlink.com 1.10,2013-03-20 20:30:00,
2013-03-20 16:45:00,55.9,7.0,29.94,West,259,2.0,-999.0,14,-99.99,,,0.00,weatherlink.com 1.10,2013-03-20 20:45:00,
2013-03-20 17:00:00,55.1,5.0,29.93,WSW,246,0.0,-999.0,13,-99.99,,,0.00,weatherlink.com 1.10,2013-03-20 21:00:00,
2013-03-20 17:15:00,54.3,10.0,29.93,SW,231,1.0,-999.0,17,-99.99,,,0.00,weatherlink.com 1.10,2013-03-20 21:15:00,
2013-03-20 17:30:00,53.6,11.0,29.92,SW,234,0.0,-999.0,18,-99.99,,,0.00,weatherlink.com 1.10,2013-03-20 21:30:00,
2013-03-20 17:45:00,53.3,9.0,29.92,WSW,240,0.0,-999.0,17,-99.99,,,0.00,weatherlink.com 1.10,2013-03-20 21:45:00,
2013-03-20 18:00:00,52.7,11.0,29.92,SW,233,2.0,-999.0,19,-99.99,,,0.00,weatherlink.com 1.10,2013-03-20 22:00:00,
2013-03-20 18:15:00,52.8,10.0,29.92,WSW,242,0.0,-999.0,18,-99.99,,,0.00,weatherlink.com 1.10,2013-03-20 22:15:00,
2013-03-20 18:31:00,51.8,12.0,29.92,WSW,240,0.0,-999.0,20,-99.99,,,0.00,weatherlink.com 1.10,2013-03-20 22:31:00,
2013-03-20 18:46:00,51.2,9.0,29.92,WSW,240,1.0,-999.0,18,-99.99,,,0.00,weatherlink.com 1.10,2013-03-20 22:46:00,
2013-03-20 19:01:00,50.9,12.0,29.92,NW,305,0.0,-999.0,21,-99.99,,,0.00,weatherlink.com 1.10,2013-03-20 23:01:00,
2013-03-20 19:31:00,50.5,11.0,29.92,NNW,343,3.0,-999.0,20,-99.99,,,0.00,weatherlink.com 1.10,2013-03-20 23:31:00,
2013-03-20 20:01:00,49.9,10.0,29.91,NNW,328,3.0,-999.0,20,-99.99,,,0.00,weatherlink.com 1.10,2013-03-21 00:01:00,
2013-03-20 20:16:00,50.1,8.0,29.91,NNW,335,2.0,-999.0,18,-99.99,,,0.00,weatherlink.com 1.10,2013-03-21 00:16:00,
2013-03-20 20:31:00,49.8,12.0,29.91,NNW,333,3.0,-999.0,22,-99.99,,,0.00,weatherlink.com 1.10,2013-03-21 00:31:00,
2013-03-20 20:46:00,49.7,12.0,29.92,WNW,291,0.0,-999.0,22,-99.99,,,0.00,weatherlink.com 1.10,2013-03-21 00:46:00,
2013-03-20 21:01:00,49.0,13.0,29.91,West,278,1.0,-999.0,24,-99.99,,,0.00,weatherlink.com 1.10,2013-03-21 01:01:00,
2013-03-20 21:17:00,48.5,14.0,29.92,WSW,249,0.0,-999.0,25,-99.99,,,0.00,weatherlink.com 1.10,2013-03-21 01:17:00,
2013-03-20 21:32:00,48.4,14.0,29.91,NNW,338,0.0,-999.0,25,-99.99,,,0.00,weatherlink.com 1.10,2013-03-21 01:32:00,
2013-03-20 21:47:00,47.9,13.0,29.91,West,259,0.0,-999.0,25,-99.99,,,0.00,weatherlink.com 1.10,2013-03-21 01:47:00,
2013-03-20 22:02:00,46.9,11.0,29.90,NNW,348,3.0,-999.0,23,-99.99,,,0.00,weatherlink.com 1.10,2013-03-21 02:02:00,
2013-03-20 22:17:00,47.5,10.0,29.90,NNW,330,1.0,-999.0,22,-99.99,,,0.00,weatherlink.com 1.10,2013-03-21 02:17:00,
2013-03-20 22:32:00,47.3,9.0,29.91,NW,315,4.0,-999.0,21,-99.99,,,0.00,weatherlink.com 1.10,2013-03-21 02:32:00,
2013-03-20 22:47:00,47.0,11.0,29.90,NW,321,2.0,-999.0,23,-99.99,,,0.00,weatherlink.com 1.10,2013-03-21 02:47:00,
2013-03-20 23:02:00,46.3,11.0,29.90,NW,307,0.0,-999.0,24,-99.99,,,0.00,weatherlink.com 1.10,2013-03-21 03:02:00,
2013-03-20 23:17:00,45.5,11.0,29.90,NW,317,3.0,-999.0,25,-99.99,,,0.00,weatherlink.com 1.10,2013-03-21 03:17:00,
2013-03-20 23:32:00,44.7,13.0,29.91,WNW,298,3.0,-999.0,28,-99.99,,,0.00,weatherlink.com 1.10,2013-03-21 03:32:00,
2013-03-20 23:47:00,44.1,15.0,29.91,West,273,0.0,-999.0,31,-99.99,,,0.00,weatherlink.com 1.10,2013-03-21 03:47:00,